createdAt,value
2022-11-24T00:04:49.644Z,72
2022-11-24T00:14:58.497Z,72
2022-11-24T00:25:07.272Z,72
2022-11-24T00:35:16.572Z,72
2022-11-24T00:45:25.219Z,71
2022-11-24T00:55:33.740Z,71
2022-11-24T01:05:42.367Z,71
2022-11-24T01:15:50.953Z,71
2022-11-24T01:25:59.609Z,70
2022-11-24T01:36:08.238Z,71
2022-11-24T01:46:16.926Z,70
2022-11-24T01:56:25.410Z,70
2022-11-24T02:06:34.000Z,70
2022-11-24T02:16:42.502Z,70
2022-11-24T02:26:51.013Z,69
2022-11-24T02:36:59.670Z,68
2022-11-24T02:47:08.459Z,67
2022-11-24T02:57:17.065Z,63
2022-11-24T03:07:25.683Z,61
2022-11-24T03:17:34.570Z,60
2022-11-24T03:27:43.188Z,60
2022-11-24T03:37:51.697Z,62
2022-11-24T03:48:00.273Z,62
2022-11-24T03:58:12.637Z,61
2022-11-24T04:08:11.513Z,60
2022-11-24T04:18:20.177Z,60
2022-11-24T04:28:28.850Z,58
2022-11-24T04:39:20.204Z,59
2022-11-24T04:48:47.944Z,62
2022-11-24T04:58:56.605Z,62
2022-11-24T05:09:04.016Z,61
2022-11-24T05:19:12.086Z,61
2022-11-24T05:29:20.377Z,59
2022-11-24T05:39:28.401Z,59
2022-11-24T05:49:36.520Z,61
2022-11-24T05:59:44.708Z,62
2022-11-24T06:09:52.727Z,62
2022-11-24T06:20:00.850Z,62
2022-11-24T06:30:08.975Z,62
2022-11-24T06:40:17.364Z,63
2022-11-24T06:50:29.276Z,65
2022-11-24T07:00:34.105Z,65
2022-11-24T07:10:42.430Z,65
2022-11-24T07:20:51.307Z,65
2022-11-24T07:31:07.207Z,65
2022-11-24T07:41:19.717Z,65
2022-11-24T07:51:27.237Z,63
2022-11-24T08:01:20.338Z,62
2022-11-24T08:11:22.943Z,62
2022-11-24T08:21:26.044Z,61
2022-11-24T08:31:34.281Z,60
2022-11-24T08:41:43.477Z,58
2022-11-24T08:51:51.747Z,60
2022-11-24T09:01:59.988Z,61
2022-11-24T09:12:13.002Z,60
2022-11-24T09:22:15.781Z,58
2022-11-24T09:32:24.265Z,58
2022-11-24T09:42:32.510Z,57
2022-11-24T09:52:40.698Z,56
2022-11-24T10:02:48.826Z,55
2022-11-24T10:12:56.880Z,54
2022-11-24T10:23:05.146Z,54
2022-11-24T10:33:13.354Z,53
2022-11-24T10:43:21.344Z,53
2022-11-24T10:53:29.596Z,54
2022-11-24T11:03:38.617Z,53
2022-11-24T11:13:46.752Z,52
2022-11-24T11:23:54.441Z,50
2022-11-24T11:34:04.085Z,50
2022-11-24T11:44:10.554Z,56
2022-11-24T11:54:18.983Z,56
2022-11-24T12:04:27.259Z,59
2022-11-24T12:14:36.663Z,61
2022-11-24T12:24:42.125Z,65
2022-11-24T12:34:51.393Z,67
2022-11-24T12:44:59.732Z,67
2022-11-24T12:55:08.149Z,66
2022-11-24T13:05:16.631Z,65
2022-11-24T13:15:45.003Z,67
2022-11-24T13:25:31.223Z,65
2022-11-24T13:35:40.070Z,66
2022-11-24T13:45:48.255Z,68
2022-11-24T13:55:56.487Z,64
2022-11-24T14:06:04.885Z,59
2022-11-24T14:16:06.853Z,53
2022-11-24T14:26:14.968Z,50
2022-11-24T14:36:23.483Z,50
2022-11-24T14:46:24.284Z,55
2022-11-24T14:56:32.362Z,54
2022-11-24T15:06:44.437Z,48
2022-11-24T15:16:43.601Z,44
2022-11-24T15:26:44.982Z,44
2022-11-24T15:36:53.214Z,46
2022-11-24T15:46:53.474Z,48
2022-11-24T15:57:01.518Z,49
2022-11-24T16:07:05.405Z,50
2022-11-24T16:17:06.990Z,51
2022-11-24T16:27:19.832Z,53
2022-11-24T16:37:19.545Z,54
2022-11-24T16:47:18.892Z,55
2022-11-24T16:57:20.140Z,55
2022-11-24T17:07:28.308Z,56
2022-11-24T17:17:37.617Z,57
2022-11-24T17:27:44.974Z,56
2022-11-24T17:37:53.171Z,56
2022-11-24T17:48:01.384Z,55
2022-11-24T17:58:10.130Z,57
2022-11-24T18:08:09.749Z,57
2022-11-24T18:18:17.960Z,57
2022-11-24T18:28:26.603Z,57
2022-11-24T18:38:35.203Z,57
2022-11-24T18:48:43.297Z,56
2022-11-24T18:58:51.310Z,56
2022-11-24T19:08:59.196Z,56
2022-11-24T19:19:14.728Z,56
2022-11-24T19:29:15.802Z,55
2022-11-24T19:39:31.272Z,55
2022-11-24T19:49:26.559Z,55
2022-11-24T19:59:26.929Z,55
2022-11-24T20:09:36.603Z,55
2022-11-24T20:19:36.415Z,54
2022-11-24T20:29:46.877Z,55
2022-11-24T20:39:57.488Z,56
2022-11-24T20:49:59.607Z,57
2022-11-24T21:00:01.722Z,58
2022-11-24T21:10:09.972Z,58
2022-11-24T21:20:18.016Z,58
2022-11-24T21:30:18.748Z,59
2022-11-24T21:40:27.252Z,60
2022-11-24T21:50:27.630Z,60
2022-11-24T22:00:34.077Z,60
2022-11-24T22:10:42.648Z,60
2022-11-24T22:20:50.962Z,60
2022-11-24T22:30:59.216Z,61
2022-11-24T22:41:08.345Z,61
2022-11-24T22:51:19.385Z,60
2022-11-24T23:01:17.499Z,61
2022-11-24T23:11:32.938Z,62
2022-11-24T23:21:26.846Z,62
2022-11-24T23:31:36.288Z,62
2022-11-24T23:41:44.321Z,62
2022-11-24T23:51:54.297Z,63
